Time;durP1;ratioP1;P1;durP2;ratioP2;P2;SDS_P1;SDS_P2;PMS_P1;PMS_P2;Temp;Humidity;BMP_temperature;BMP_pressure;BME280_temperature;BME280_humidity;BME280_pressure;Samples;Min_cycle;Max_cycle;Signal;HPM_P1;HPM_P2
2022/08/08 00:00:16;;;;;;;0.00;0.00;;;;;;;;;;12270274;19;19998;-65
2022/08/08 00:04:22;;;;;;;0.00;0.00;;;;;;;;;;12268250;19;19990;-65
2022/08/08 00:08:38;;;;;;;0.00;0.00;;;;;;;;;;12271785;19;19994;-65
2022/08/08 00:12:48;;;;;;;0.00;0.00;;;;;;;;;;12271772;19;19994;-64
2022/08/08 00:17:19;;;;;;;0.00;0.00;;;;;;;;;;12269216;19;19994;-64
2022/08/08 00:21:30;;;;;;;0.00;0.00;;;;;;;;;;12266971;19;20107;-64
2022/08/08 00:25:40;;;;;;;0.00;0.00;;;;;;;;;;12268107;19;20012;-64
2022/08/08 00:30:04;;;;;;;0.00;0.00;;;;;;;;;;12272125;19;19991;-63
2022/08/08 00:39:14;;;;;;;0.00;0.00;;;;;;;;;;12275179;19;20009;-64
2022/08/08 00:43:36;;;;;;;0.00;0.00;;;;;;;;;;12267310;19;20234;-64
2022/08/08 00:48:05;;;;;;;0.00;0.00;;;;;;;;;;12274297;19;20200;-65
2022/08/08 00:52:26;;;;;;;0.00;0.00;;;;;;;;;;12276399;19;20046;-65
2022/08/08 00:56:29;;;;;;;0.00;0.00;;;;;;;;;;12270958;19;20038;-65
2022/08/08 01:00:45;;;;;;;0.00;0.00;;;;;;;;;;12278462;19;19999;-65
2022/08/08 01:04:51;;;;;;;0.00;0.00;;;;;;;;;;12270439;19;20017;-65
2022/08/08 01:09:10;;;;;;;0.00;0.00;;;;;;;;;;12263004;19;20002;-65
2022/08/08 01:13:19;;;;;;;0.00;0.00;;;;;;;;;;12266144;19;20257;-64
2022/08/08 01:17:41;;;;;;;0.00;0.00;;;;;;;;;;12280498;19;19999;-65
2022/08/08 01:22:03;;;;;;;0.00;0.00;;;;;;;;;;12277456;19;19997;-64
2022/08/08 01:26:24;;;;;;;0.00;0.00;;;;;;;;;;12279843;19;20047;-64
2022/08/08 01:30:39;;;;;;;0.00;0.00;;;;;;;;;;12276344;19;19995;-64
2022/08/08 01:35:13;;;;;;;0.00;0.00;;;;;;;;;;12281221;19;20003;-65
2022/08/08 01:39:55;;;;;;;0.00;0.00;;;;;;;;;;12277355;19;19979;-64
2022/08/08 01:44:08;;;;;;;0.00;0.00;;;;;;;;;;12281778;19;20607;-65
2022/08/08 01:48:34;;;;;;;0.00;0.00;;;;;;;;;;12275487;19;20264;-64
2022/08/08 01:52:46;;;;;;;0.00;0.00;;;;;;;;;;12280984;19;20003;-65
2022/08/08 01:57:04;;;;;;;0.00;0.00;;;;;;;;;;12280674;19;20007;-65
2022/08/08 02:01:12;;;;;;;0.00;0.00;;;;;;;;;;12277764;19;20010;-64
2022/08/08 02:05:38;;;;;;;0.00;0.00;;;;;;;;;;12276060;19;20226;-65
2022/08/08 02:10:12;;;;;;;0.00;0.00;;;;;;;;;;12281392;19;20171;-65
2022/08/08 02:14:39;;;;;;;0.00;0.00;;;;;;;;;;12279504;19;19999;-65
2022/08/08 02:18:45;;;;;;;0.00;0.00;;;;;;;;;;12276289;19;20058;-65
2022/08/08 02:23:03;;;;;;;0.00;0.00;;;;;;;;;;12274223;19;19998;-65
2022/08/08 02:27:13;;;;;;;0.00;0.00;;;;;;;;;;12277290;19;20131;-65
2022/08/08 02:31:46;;;;;;;0.00;0.00;;;;;;;;;;12276399;19;20223;-64
2022/08/08 02:35:58;;;;;;;0.00;0.00;;;;;;;;;;12274798;19;19979;-64
2022/08/08 02:40:07;;;;;;;0.00;0.00;;;;;;;;;;12274548;19;20019;-64
2022/08/08 02:44:42;;;;;;;0.00;0.00;;;;;;;;;;12275664;19;20132;-64
2022/08/08 02:49:16;;;;;;;0.00;0.00;;;;;;;;;;12271679;19;19999;-65
2022/08/08 02:53:29;;;;;;;0.00;0.00;;;;;;;;;;12273168;19;19991;-65
2022/08/08 02:57:41;;;;;;;0.00;0.00;;;;;;;;;;12276941;19;20040;-65
2022/08/08 03:01:47;;;;;;;0.00;0.00;;;;;;;;;;12272473;19;19979;-65
2022/08/08 03:06:07;;;;;;;0.00;0.00;;;;;;;;;;12271799;19;19986;-65
2022/08/08 03:10:35;;;;;;;0.00;0.00;;;;;;;;;;12276263;19;20007;-64
2022/08/08 03:14:50;;;;;;;0.00;0.00;;;;;;;;;;12273490;19;20046;-65
2022/08/08 03:19:20;;;;;;;0.00;0.00;;;;;;;;;;12272291;19;20007;-64
2022/08/08 03:23:21;;;;;;;0.00;0.00;;;;;;;;;;12269804;19;20009;-64
2022/08/08 03:27:34;;;;;;;0.00;0.00;;;;;;;;;;12273550;19;19999;-64
2022/08/08 03:35:54;;;;;;;0.00;0.00;;;;;;;;;;12271020;19;20014;-65
2022/08/08 03:39:54;;;;;;;0.00;0.00;;;;;;;;;;12271600;19;19994;-65
2022/08/08 03:43:56;;;;;;;0.00;0.00;;;;;;;;;;12273399;19;20006;-65
2022/08/08 03:47:57;;;;;;;0.00;0.00;;;;;;;;;;12272413;19;20003;-65
2022/08/08 03:51:58;;;;;;;0.00;0.00;;;;;;;;;;12270203;19;20103;-65
2022/08/08 03:55:59;;;;;;;0.00;0.00;;;;;;;;;;12272073;19;20165;-65
2022/08/08 04:00:00;;;;;;;0.00;0.00;;;;;;;;;;12269008;19;20132;-65
2022/08/08 04:04:01;;;;;;;0.00;0.00;;;;;;;;;;12275496;19;20146;-66
2022/08/08 04:08:04;;;;;;;0.00;0.00;;;;;;;;;;12267103;19;19987;-64
2022/08/08 04:12:05;;;;;;;0.00;0.00;;;;;;;;;;12273832;19;20002;-64
2022/08/08 04:16:06;;;;;;;0.00;0.00;;;;;;;;;;12268881;19;19979;-64
2022/08/08 04:20:07;;;;;;;0.00;0.00;;;;;;;;;;12271463;19;20024;-64
2022/08/08 04:24:07;;;;;;;0.00;0.00;;;;;;;;;;12268905;19;20008;-64
2022/08/08 04:28:08;;;;;;;0.00;0.00;;;;;;;;;;12268235;19;20003;-64
2022/08/08 04:32:13;;;;;;;0.00;0.00;;;;;;;;;;12267207;19;20034;-64
2022/08/08 04:36:13;;;;;;;0.00;0.00;;;;;;;;;;12270185;19;20017;-64
2022/08/08 04:40:13;;;;;;;0.00;0.00;;;;;;;;;;12269037;19;20006;-64
2022/08/08 04:44:15;;;;;;;0.00;0.00;;;;;;;;;;12265380;19;20010;-64
2022/08/08 04:48:16;;;;;;;0.00;0.00;;;;;;;;;;12266785;19;20077;-63
2022/08/08 04:52:16;;;;;;;0.00;0.00;;;;;;;;;;12279650;19;20054;-63
2022/08/08 04:56:17;;;;;;;0.00;0.00;;;;;;;;;;12280772;19;20243;-64
2022/08/08 05:00:18;;;;;;;0.00;0.00;;;;;;;;;;12278863;19;19987;-64
2022/08/08 05:04:19;;;;;;;0.00;0.00;;;;;;;;;;12279739;19;19990;-64
2022/08/08 05:08:19;;;;;;;0.00;0.00;;;;;;;;;;12283414;19;20006;-64
2022/08/08 05:12:20;;;;;;;0.00;0.00;;;;;;;;;;12279432;19;20069;-65
2022/08/08 05:16:21;;;;;;;0.00;0.00;;;;;;;;;;12288407;19;20007;-65
2022/08/08 05:20:21;;;;;;;0.00;0.00;;;;;;;;;;12280080;19;20011;-65
2022/08/08 05:24:22;;;;;;;0.00;0.00;;;;;;;;;;12281491;19;20058;-64
2022/08/08 05:28:22;;;;;;;0.00;0.00;;;;;;;;;;12277220;19;19987;-63
2022/08/08 05:32:23;;;;;;;0.00;0.00;;;;;;;;;;12283178;19;20018;-64
2022/08/08 05:36:25;;;;;;;0.00;0.00;;;;;;;;;;12278497;19;20058;-66
2022/08/08 05:40:27;;;;;;;0.00;0.00;;;;;;;;;;12280870;19;20007;-64
2022/08/08 05:44:29;;;;;;;0.00;0.00;;;;;;;;;;12281377;19;20035;-64
2022/08/08 05:48:31;;;;;;;0.00;0.00;;;;;;;;;;12276731;19;19998;-65
2022/08/08 05:52:32;;;;;;;;;;;;;;;;;;12280090;19;20015;-64
2022/08/08 05:56:39;;;;;;;0.00;0.00;;;;;;;;;;12276097;19;19927;-64
2022/08/08 06:00:43;;;;;;;0.00;0.00;;;;;;;;;;12275121;19;20235;-64
2022/08/08 06:04:50;;;;;;;0.00;0.00;;;;;;;;;;12280921;19;20054;-63
2022/08/08 06:08:51;;;;;;;0.00;0.00;;;;;;;;;;12272893;19;20014;-65
2022/08/08 06:12:52;;;;;;;0.00;0.00;;;;;;;;;;12275764;19;19991;-63
2022/08/08 06:16:55;;;;;;;0.00;0.00;;;;;;;;;;12281023;19;20690;-65
2022/08/08 06:20:58;;;;;;;0.00;0.00;;;;;;;;;;12277803;19;20009;-64
2022/08/08 06:24:58;;;;;;;0.00;0.00;;;;;;;;;;12274835;19;20062;-64
2022/08/08 06:29:04;;;;;;;0.00;0.00;;;;;;;;;;12270868;19;20716;-64
2022/08/08 06:33:10;;;;;;;0.00;0.00;;;;;;;;;;12277637;19;20063;-64
2022/08/08 06:37:12;;;;;;;0.00;0.00;;;;;;;;;;12277617;19;20055;-64
2022/08/08 06:41:16;;;;;;;0.00;0.00;;;;;;;;;;12274220;19;20239;-64
2022/08/08 06:45:18;;;;;;;0.00;0.00;;;;;;;;;;12273175;19;20002;-65
2022/08/08 06:49:18;;;;;;;;;;;;;;;;;;12276621;19;20003;-64
2022/08/08 06:53:20;;;;;;;0.00;0.00;;;;;;;;;;12279205;19;19918;-64
2022/08/08 06:57:23;;;;;;;;;;;;;;;;;;12273895;19;20003;-65
2022/08/08 07:01:28;;;;;;;0.00;0.00;;;;;;;;;;12277922;19;19914;-65
2022/08/08 07:05:32;;;;;;;0.00;0.00;;;;;;;;;;12273717;19;20010;-65
2022/08/08 07:09:37;;;;;;;0.00;0.00;;;;;;;;;;12276558;19;20067;-64
2022/08/08 07:13:42;;;;;;;0.00;0.00;;;;;;;;;;12273110;19;20011;-64
2022/08/08 07:17:49;;;;;;;0.00;0.00;;;;;;;;;;12272363;19;20002;-64
2022/08/08 07:22:02;;;;;;;0.00;0.00;;;;;;;;;;12276896;19;20017;-64
2022/08/08 07:26:03;;;;;;;0.00;0.00;;;;;;;;;;12275448;19;20130;-64
2022/08/08 07:30:06;;;;;;;0.00;0.00;;;;;;;;;;12277447;19;20281;-65
2022/08/08 07:34:09;;;;;;;0.00;0.00;;;;;;;;;;12274454;19;20016;-65
2022/08/08 07:38:09;;;;;;;0.00;0.00;;;;;;;;;;12272982;19;20006;-64
2022/08/08 07:42:12;;;;;;;0.00;0.00;;;;;;;;;;12275423;19;20014;-65
2022/08/08 07:46:13;;;;;;;0.00;0.00;;;;;;;;;;12270860;19;20072;-64
2022/08/08 07:50:14;;;;;;;0.00;0.00;;;;;;;;;;12271914;19;19995;-64
2022/08/08 07:54:26;;;;;;;0.00;0.00;;;;;;;;;;12276112;19;20007;-65
2022/08/08 07:58:41;;;;;;;0.00;0.00;;;;;;;;;;12268385;19;20124;-63
2022/08/08 08:03:05;;;;;;;0.00;0.00;;;;;;;;;;12271547;19;20005;-64
2022/08/08 08:07:07;;;;;;;0.00;0.00;;;;;;;;;;12271728;19;20010;-65
2022/08/08 08:11:11;;;;;;;0.00;0.00;;;;;;;;;;12268827;19;19990;-64
2022/08/08 08:15:17;;;;;;;0.00;0.00;;;;;;;;;;12274007;19;20013;-65
2022/08/08 08:19:18;;;;;;;0.00;0.00;;;;;;;;;;12270652;19;20019;-64
2022/08/08 08:23:19;;;;;;;0.00;0.00;;;;;;;;;;12272671;19;20011;-64
2022/08/08 08:27:20;;;;;;;0.00;0.00;;;;;;;;;;12271001;19;19999;-64
2022/08/08 08:31:21;;;;;;;0.00;0.00;;;;;;;;;;12268287;19;20140;-64
2022/08/08 08:35:21;;;;;;;0.00;0.00;;;;;;;;;;12268423;19;20214;-64
2022/08/08 08:39:22;;;;;;;0.00;0.00;;;;;;;;;;12273205;19;20215;-64
2022/08/08 08:43:23;;;;;;;0.00;0.00;;;;;;;;;;12268857;19;19999;-63
2022/08/08 08:47:25;;;;;;;0.00;0.00;;;;;;;;;;12265217;19;20006;-64
2022/08/08 08:51:27;;;;;;;0.00;0.00;;;;;;;;;;12273759;19;20103;-65
2022/08/08 08:55:30;;;;;;;0.00;0.00;;;;;;;;;;12267988;19;20160;-64
2022/08/08 08:59:34;;;;;;;0.00;0.00;;;;;;;;;;12269858;19;19995;-64
2022/08/08 09:03:35;;;;;;;0.00;0.00;;;;;;;;;;12266901;19;20154;-64
2022/08/08 09:07:37;;;;;;;0.00;0.00;;;;;;;;;;12269299;19;19995;-65
2022/08/08 09:11:39;;;;;;;0.00;0.00;;;;;;;;;;12265768;19;20006;-64
2022/08/08 09:15:40;;;;;;;;;;;;;;;;;;12274166;19;19990;-64
2022/08/08 09:19:40;;;;;;;0.00;0.00;;;;;;;;;;12270547;19;19918;-64
2022/08/08 09:23:41;;;;;;;0.00;0.00;;;;;;;;;;12267655;19;19991;-64
2022/08/08 09:27:43;;;;;;;0.00;0.00;;;;;;;;;;12268516;19;20190;-65
2022/08/08 09:31:54;;;;;;;0.00;0.00;;;;;;;;;;12266005;19;19998;-64
2022/08/08 09:35:56;;;;;;;0.00;0.00;;;;;;;;;;12272347;19;20008;-63
2022/08/08 09:39:59;;;;;;;0.00;0.00;;;;;;;;;;12278831;19;20018;-64
2022/08/08 09:44:12;;;;;;;0.00;0.00;;;;;;;;;;12275521;19;19998;-64
2022/08/08 09:48:16;;;;;;;0.00;0.00;;;;;;;;;;12278470;19;20014;-64
2022/08/08 09:52:22;;;;;;;0.00;0.00;;;;;;;;;;12279595;19;19991;-65
2022/08/08 09:56:24;;;;;;;0.00;0.00;;;;;;;;;;12277374;19;20006;-65
2022/08/08 10:00:25;;;;;;;0.00;0.00;;;;;;;;;;12279988;19;20030;-65
2022/08/08 10:04:26;;;;;;;0.00;0.00;;;;;;;;;;12280356;19;20002;-65
2022/08/08 10:08:30;;;;;;;0.00;0.00;;;;;;;;;;12273531;19;19991;-65
2022/08/08 10:12:40;;;;;;;0.00;0.00;;;;;;;;;;12275764;19;20003;-65
2022/08/08 10:16:42;;;;;;;0.00;0.00;;;;;;;;;;12276927;19;19995;-62
2022/08/08 10:20:44;;;;;;;;;;;;;;;;;;12281542;19;20243;-65
2022/08/08 10:24:47;;;;;;;0.00;0.00;;;;;;;;;;12277436;19;19911;-64
2022/08/08 10:28:57;;;;;;;0.00;0.00;;;;;;;;;;12271470;19;20007;-63
2022/08/08 10:32:59;;;;;;;0.00;0.00;;;;;;;;;;12274516;19;19998;-64
2022/08/08 10:37:01;;;;;;;0.00;0.00;;;;;;;;;;12278200;19;20010;-63
2022/08/08 10:41:04;;;;;;;0.00;0.00;;;;;;;;;;12278761;19;20054;-64
2022/08/08 10:45:06;;;;;;;0.00;0.00;;;;;;;;;;12278103;19;20007;-64
2022/08/08 10:49:07;;;;;;;0.00;0.00;;;;;;;;;;12276233;19;20006;-64
2022/08/08 10:53:14;;;;;;;0.00;0.00;;;;;;;;;;12273245;19;20011;-64
2022/08/08 10:57:15;;;;;;;0.00;0.00;;;;;;;;;;12278378;19;20006;-64
2022/08/08 11:01:19;;;;;;;0.00;0.00;;;;;;;;;;12272462;19;20027;-64
2022/08/08 11:05:20;;;;;;;0.00;0.00;;;;;;;;;;12276248;19;20247;-64
2022/08/08 11:09:23;;;;;;;0.00;0.00;;;;;;;;;;12273074;19;20002;-64
2022/08/08 11:13:24;;;;;;;0.00;0.00;;;;;;;;;;12272690;19;20012;-65
2022/08/08 11:17:30;;;;;;;0.00;0.00;;;;;;;;;;12277281;19;19995;-65
2022/08/08 11:21:34;;;;;;;0.00;0.00;;;;;;;;;;12273560;19;20003;-65
2022/08/08 11:25:34;;;;;;;0.00;0.00;;;;;;;;;;12278282;19;20267;-66
2022/08/08 11:29:36;;;;;;;0.00;0.00;;;;;;;;;;12271863;19;20003;-63
2022/08/08 11:33:38;;;;;;;0.00;0.00;;;;;;;;;;12277120;19;20002;-64
2022/08/08 11:37:40;;;;;;;;;;;;;;;;;;12274848;19;20010;-64
2022/08/08 11:41:42;;;;;;;0.00;0.00;;;;;;;;;;12276231;19;19921;-65
2022/08/08 11:45:44;;;;;;;0.00;0.00;;;;;;;;;;12270576;19;20002;-64
2022/08/08 11:49:46;;;;;;;0.00;0.00;;;;;;;;;;12271008;19;20011;-65
2022/08/08 11:53:48;;;;;;;0.00;0.00;;;;;;;;;;12273969;19;20006;-66
2022/08/08 11:57:48;;;;;;;0.00;0.00;;;;;;;;;;12278571;19;20062;-64
2022/08/08 12:01:49;;;;;;;0.00;0.00;;;;;;;;;;12273392;19;20069;-64
2022/08/08 12:05:51;;;;;;;0.00;0.00;;;;;;;;;;12271051;19;19999;-64
2022/08/08 12:09:53;;;;;;;0.00;0.00;;;;;;;;;;12275239;19;20132;-65
2022/08/08 12:14:02;;;;;;;0.00;0.00;;;;;;;;;;12269629;19;19987;-65
2022/08/08 12:18:24;;;;;;;0.00;0.00;;;;;;;;;;12275944;19;20003;-65
2022/08/08 12:22:28;;;;;;;0.00;0.00;;;;;;;;;;12269608;19;20011;-65
2022/08/08 12:26:42;;;;;;;0.00;0.00;;;;;;;;;;12272293;19;20015;-65
2022/08/08 12:30:44;;;;;;;0.00;0.00;;;;;;;;;;12270660;19;20107;-65
2022/08/08 12:34:50;;;;;;;0.00;0.00;;;;;;;;;;12267255;19;20007;-65
2022/08/08 12:38:50;;;;;;;0.00;0.00;;;;;;;;;;12274234;19;20011;-65
2022/08/08 12:42:51;;;;;;;0.00;0.00;;;;;;;;;;12273950;19;20007;-64
2022/08/08 12:46:57;;;;;;;0.00;0.00;;;;;;;;;;12266972;19;20007;-65
2022/08/08 12:50:57;;;;;;;0.00;0.00;;;;;;;;;;12268015;19;20031;-65
2022/08/08 12:55:24;;;;;;;0.00;0.00;;;;;;;;;;12267282;19;20100;-65
2022/08/08 12:59:29;;;;;;;0.00;0.00;;;;;;;;;;12266504;19;19975;-65
2022/08/08 13:03:32;;;;;;;0.00;0.00;;;;;;;;;;12272822;19;20070;-65
2022/08/08 13:07:37;;;;;;;0.00;0.00;;;;;;;;;;12268853;19;20010;-65
2022/08/08 13:11:37;;;;;;;0.00;0.00;;;;;;;;;;12278021;19;20026;-65
2022/08/08 13:15:38;;;;;;;0.00;0.00;;;;;;;;;;12280175;19;20082;-65
2022/08/08 13:19:38;;;;;;;0.00;0.00;;;;;;;;;;12278532;19;19985;-65
2022/08/08 13:23:39;;;;;;;0.00;0.00;;;;;;;;;;12277816;19;20020;-62
2022/08/08 13:27:39;;;;;;;0.00;0.00;;;;;;;;;;12280332;19;20058;-63
2022/08/08 13:31:51;;;;;;;0.00;0.00;;;;;;;;;;12280767;19;20160;-60
2022/08/08 13:35:54;;;;;;;0.00;0.00;;;;;;;;;;12279590;19;20072;-60
2022/08/08 13:39:55;;;;;;;0.00;0.00;;;;;;;;;;12277066;19;19991;-58
2022/08/08 13:43:56;;;;;;;0.00;0.00;;;;;;;;;;12278232;19;20014;-62
2022/08/08 13:48:01;;;;;;;0.00;0.00;;;;;;;;;;12280812;19;20058;-55
2022/08/08 13:52:04;;;;;;;0.00;0.00;;;;;;;;;;12282241;19;19990;-59
2022/08/08 13:56:07;;;;;;;0.00;0.00;;;;;;;;;;12279460;19;20006;-55
2022/08/08 14:00:17;;;;;;;0.00;0.00;;;;;;;;;;12284097;19;20013;-61
2022/08/08 14:04:21;;;;;;;0.00;0.00;;;;;;;;;;12279940;19;20005;-60
2022/08/08 14:08:25;;;;;;;0.00;0.00;;;;;;;;;;12274888;19;20006;-59
2022/08/08 14:12:28;;;;;;;0.00;0.00;;;;;;;;;;12279691;19;20006;-61
2022/08/08 14:16:28;;;;;;;0.00;0.00;;;;;;;;;;12280937;19;20014;-58
2022/08/08 14:20:36;;;;;;;0.00;0.00;;;;;;;;;;12278379;19;20006;-60
2022/08/08 14:24:37;;;;;;;0.00;0.00;;;;;;;;;;12279050;19;20130;-60
2022/08/08 14:28:37;;;;;;;0.00;0.00;;;;;;;;;;12274613;19;20318;-60
2022/08/08 14:32:53;;;;;;;0.00;0.00;;;;;;;;;;12280953;19;19995;-61
2022/08/08 14:36:54;;;;;;;0.00;0.00;;;;;;;;;;12279060;19;20001;-58
2022/08/08 14:40:54;;;;;;;0.00;0.00;;;;;;;;;;12277478;19;19994;-60
2022/08/08 14:44:57;;;;;;;0.00;0.00;;;;;;;;;;12276589;19;20041;-62
2022/08/08 14:49:01;;;;;;;0.00;0.00;;;;;;;;;;12276178;19;20021;-62
2022/08/08 14:53:05;;;;;;;0.00;0.00;;;;;;;;;;12280556;19;20001;-59
2022/08/08 14:57:05;;;;;;;0.00;0.00;;;;;;;;;;12273015;19;20007;-59
2022/08/08 15:01:06;;;;;;;0.00;0.00;;;;;;;;;;12278151;19;19998;-62
2022/08/08 15:05:07;;;;;;;0.00;0.00;;;;;;;;;;12273317;19;20013;-65
2022/08/08 15:09:07;;;;;;;0.00;0.00;;;;;;;;;;12276837;19;20007;-65
2022/08/08 15:13:10;;;;;;;0.00;0.00;;;;;;;;;;12277933;19;20006;-61
2022/08/08 15:17:10;;;;;;;0.00;0.00;;;;;;;;;;12269271;19;20009;-60
2022/08/08 15:21:11;;;;;;;0.00;0.00;;;;;;;;;;12271965;19;20002;-61
2022/08/08 15:25:13;;;;;;;0.00;0.00;;;;;;;;;;12270373;19;20002;-61
2022/08/08 15:29:14;;;;;;;0.00;0.00;;;;;;;;;;12274913;19;20003;-63
2022/08/08 15:33:14;;;;;;;0.00;0.00;;;;;;;;;;12271146;19;19998;-61
2022/08/08 15:37:16;;;;;;;0.00;0.00;;;;;;;;;;12272660;19;20234;-61
2022/08/08 15:41:16;;;;;;;0.00;0.00;;;;;;;;;;12271002;19;20350;-63
2022/08/08 15:45:17;;;;;;;0.00;0.00;;;;;;;;;;12269456;19;20350;-58
2022/08/08 15:49:19;;;;;;;0.00;0.00;;;;;;;;;;12273080;19;20017;-61
2022/08/08 15:53:22;;;;;;;0.00;0.00;;;;;;;;;;12272823;19;19999;-61
2022/08/08 15:57:23;;;;;;;0.00;0.00;;;;;;;;;;12271363;19;20004;-59
2022/08/08 16:01:23;;;;;;;0.00;0.00;;;;;;;;;;12269329;19;19990;-61
2022/08/08 16:05:24;;;;;;;0.00;0.00;;;;;;;;;;12270268;19;20187;-60
2022/08/08 16:09:27;;;;;;;0.00;0.00;;;;;;;;;;12269217;19;20039;-60
2022/08/08 16:13:27;;;;;;;0.00;0.00;;;;;;;;;;12273753;19;20003;-63
2022/08/08 16:17:28;;;;;;;0.00;0.00;;;;;;;;;;12270155;19;20594;-64
2022/08/08 16:21:30;;;;;;;0.00;0.00;;;;;;;;;;12264803;19;20225;-62
2022/08/08 16:25:32;;;;;;;0.00;0.00;;;;;;;;;;12275295;19;20215;-59
2022/08/08 16:29:33;;;;;;;0.00;0.00;;;;;;;;;;12272062;19;20023;-59
2022/08/08 16:33:34;;;;;;;0.00;0.00;;;;;;;;;;12274926;19;20003;-60
2022/08/08 16:37:39;;;;;;;0.00;0.00;;;;;;;;;;12271715;19;20017;-60
2022/08/08 16:41:40;;;;;;;0.00;0.00;;;;;;;;;;12272468;19;19999;-59
2022/08/08 16:45:40;;;;;;;0.00;0.00;;;;;;;;;;12275070;19;20011;-61
2022/08/08 16:49:41;;;;;;;0.00;0.00;;;;;;;;;;12284446;19;20070;-59
2022/08/08 16:53:41;;;;;;;0.00;0.00;;;;;;;;;;12285722;19;19995;-61
2022/08/08 16:57:42;;;;;;;0.00;0.00;;;;;;;;;;12283688;19;19998;-61
2022/08/08 17:01:42;;;;;;;0.00;0.00;;;;;;;;;;12285012;19;20002;-60
2022/08/08 17:05:43;;;;;;;0.00;0.00;;;;;;;;;;12281641;19;20018;-60
2022/08/08 17:09:43;;;;;;;0.00;0.00;;;;;;;;;;12285431;19;20193;-60
2022/08/08 17:13:44;;;;;;;0.00;0.00;;;;;;;;;;12282809;19;20241;-61
2022/08/08 17:17:44;;;;;;;0.00;0.00;;;;;;;;;;12284455;19;20007;-61
2022/08/08 17:21:45;;;;;;;0.00;0.00;;;;;;;;;;12281214;19;19998;-61
2022/08/08 17:25:45;;;;;;;0.00;0.00;;;;;;;;;;12280018;19;20211;-63
2022/08/08 17:29:46;;;;;;;0.00;0.00;;;;;;;;;;12278483;19;20001;-60
2022/08/08 17:33:46;;;;;;;0.00;0.00;;;;;;;;;;12278490;19;20011;-62
2022/08/08 17:37:47;;;;;;;0.00;0.00;;;;;;;;;;12282595;19;20046;-61
2022/08/08 17:41:48;;;;;;;0.00;0.00;;;;;;;;;;12277954;19;20005;-59
2022/08/08 17:45:49;;;;;;;0.00;0.00;;;;;;;;;;12277992;19;20006;-59
2022/08/08 17:49:50;;;;;;;0.00;0.00;;;;;;;;;;12282277;19;20007;-61
2022/08/08 17:53:51;;;;;;;0.00;0.00;;;;;;;;;;12279908;19;20013;-60
2022/08/08 17:57:51;;;;;;;0.00;0.00;;;;;;;;;;12273312;19;21393;-61
2022/08/08 18:01:54;;;;;;;0.00;0.00;;;;;;;;;;12274897;19;19990;-61
2022/08/08 18:05:55;;;;;;;0.00;0.00;;;;;;;;;;12280682;19;20162;-60
2022/08/08 18:09:55;;;;;;;0.00;0.00;;;;;;;;;;12280577;19;20218;-63
2022/08/08 18:13:56;;;;;;;0.00;0.00;;;;;;;;;;12276874;19;20002;-62
2022/08/08 18:17:57;;;;;;;0.00;0.00;;;;;;;;;;12275565;19;20007;-62
2022/08/08 18:21:59;;;;;;;0.00;0.00;;;;;;;;;;12279349;19;20006;-62
2022/08/08 18:25:59;;;;;;;0.00;0.00;;;;;;;;;;12282339;19;19999;-63
2022/08/08 18:30:03;;;;;;;0.00;0.00;;;;;;;;;;12275880;19;20141;-62
2022/08/08 18:34:04;;;;;;;0.00;0.00;;;;;;;;;;12279326;19;20126;-58
2022/08/08 18:38:05;;;;;;;0.00;0.00;;;;;;;;;;12276219;19;20002;-60
2022/08/08 18:42:05;;;;;;;0.00;0.00;;;;;;;;;;12274488;19;19997;-60
2022/08/08 18:46:06;;;;;;;0.00;0.00;;;;;;;;;;12276539;19;20020;-62
2022/08/08 18:50:07;;;;;;;0.00;0.00;;;;;;;;;;12277919;19;20059;-61
2022/08/08 18:54:08;;;;;;;0.00;0.00;;;;;;;;;;12277078;19;20003;-61
2022/08/08 18:58:09;;;;;;;0.00;0.00;;;;;;;;;;12279335;19;20028;-60
2022/08/08 19:02:10;;;;;;;0.00;0.00;;;;;;;;;;12277882;19;19999;-62
2022/08/08 19:06:12;;;;;;;0.00;0.00;;;;;;;;;;12274951;19;20054;-60
2022/08/08 19:10:13;;;;;;;0.00;0.00;;;;;;;;;;12271035;19;20079;-62
2022/08/08 19:14:14;;;;;;;0.00;0.00;;;;;;;;;;12278616;19;20134;-58
2022/08/08 19:18:14;;;;;;;0.00;0.00;;;;;;;;;;12277838;19;20245;-67
2022/08/08 19:22:15;;;;;;;0.00;0.00;;;;;;;;;;12273595;19;20011;-64
2022/08/08 19:26:16;;;;;;;0.00;0.00;;;;;;;;;;12276589;19;20006;-67
2022/08/08 19:30:16;;;;;;;0.00;0.00;;;;;;;;;;12272001;19;19994;-66
2022/08/08 19:34:19;;;;;;;0.00;0.00;;;;;;;;;;12275777;19;20231;-66
2022/08/08 19:38:19;;;;;;;0.00;0.00;;;;;;;;;;12269027;19;20107;-66
2022/08/08 19:42:20;;;;;;;0.00;0.00;;;;;;;;;;12271749;19;20310;-65
2022/08/08 19:46:21;;;;;;;0.00;0.00;;;;;;;;;;12271767;19;20002;-67
2022/08/08 19:50:21;;;;;;;0.00;0.00;;;;;;;;;;12272193;19;20007;-63
2022/08/08 19:54:22;;;;;;;0.00;0.00;;;;;;;;;;12275862;19;20290;-65
2022/08/08 19:58:23;;;;;;;0.00;0.00;;;;;;;;;;12276012;19;20006;-67
2022/08/08 20:02:25;;;;;;;0.00;0.00;;;;;;;;;;12273636;19;20010;-66
2022/08/08 20:06:25;;;;;;;0.00;0.00;;;;;;;;;;12269251;19;20007;-65
2022/08/08 20:10:27;;;;;;;0.00;0.00;;;;;;;;;;12275446;19;20022;-67
2022/08/08 20:14:28;;;;;;;0.00;0.00;;;;;;;;;;12269909;19;20103;-64
2022/08/08 20:18:29;;;;;;;0.00;0.00;;;;;;;;;;12274216;19;20218;-65
2022/08/08 20:22:29;;;;;;;0.00;0.00;;;;;;;;;;12271717;19;20160;-65
2022/08/08 20:26:30;;;;;;;0.00;0.00;;;;;;;;;;12268229;19;20011;-67
2022/08/08 20:30:31;;;;;;;0.00;0.00;;;;;;;;;;12270698;19;20006;-66
2022/08/08 20:34:32;;;;;;;0.00;0.00;;;;;;;;;;12273053;19;20010;-64
2022/08/08 20:38:32;;;;;;;0.00;0.00;;;;;;;;;;12271747;19;20006;-67
2022/08/08 20:42:35;;;;;;;0.00;0.00;;;;;;;;;;12268818;19;19991;-65
2022/08/08 20:46:35;;;;;;;0.00;0.00;;;;;;;;;;12265327;19;20035;-65
2022/08/08 20:50:36;;;;;;;0.00;0.00;;;;;;;;;;12267333;19;19995;-67
2022/08/08 20:54:37;;;;;;;0.00;0.00;;;;;;;;;;12272114;19;20003;-66
2022/08/08 20:58:37;;;;;;;0.00;0.00;;;;;;;;;;12275090;19;20132;-64
2022/08/08 21:02:38;;;;;;;0.00;0.00;;;;;;;;;;12267221;19;20098;-67
2022/08/08 21:06:38;;;;;;;0.00;0.00;;;;;;;;;;12271064;19;20019;-64
2022/08/08 21:10:39;;;;;;;0.00;0.00;;;;;;;;;;12269498;19;20027;-67
2022/08/08 21:14:39;;;;;;;0.00;0.00;;;;;;;;;;12270967;19;20015;-64
2022/08/08 21:18:40;;;;;;;0.00;0.00;;;;;;;;;;12266431;19;19983;-65
2022/08/08 21:22:40;;;;;;;0.00;0.00;;;;;;;;;;12268819;19;20007;-64
2022/08/08 21:26:41;;;;;;;0.00;0.00;;;;;;;;;;12265482;19;19991;-67
2022/08/08 21:30:42;;;;;;;0.00;0.00;;;;;;;;;;12272266;19;20137;-67
2022/08/08 21:34:45;;;;;;;0.00;0.00;;;;;;;;;;12277698;19;20011;-64
2022/08/08 21:38:49;;;;;;;0.00;0.00;;;;;;;;;;12284177;19;20129;-67
2022/08/08 21:42:49;;;;;;;0.25;0.10;;;;;;;;;;12281463;19;20074;-64
2022/08/08 21:46:50;;;;;;;0.00;0.00;;;;;;;;;;12278381;19;20018;-67
2022/08/08 21:50:50;;;;;;;0.00;0.00;;;;;;;;;;12283965;19;20100;-64
2022/08/08 21:54:51;;;;;;;0.00;0.00;;;;;;;;;;12277260;19;20122;-64
2022/08/08 21:58:51;;;;;;;0.00;0.00;;;;;;;;;;12276040;19;19987;-64
2022/08/08 22:02:52;;;;;;;0.00;0.00;;;;;;;;;;12282251;19;20042;-67
2022/08/08 22:06:52;;;;;;;0.00;0.00;;;;;;;;;;12276341;19;20009;-66
2022/08/08 22:10:53;;;;;;;0.00;0.00;;;;;;;;;;12275335;19;19982;-67
2022/08/08 22:14:54;;;;;;;0.00;0.00;;;;;;;;;;12282468;19;20011;-66
2022/08/08 22:18:54;;;;;;;0.00;0.00;;;;;;;;;;12280562;19;20156;-64
